Data for 01/23/2010

Time Sea-Level Adjusted Pressure Absolute Pressure Temperature Relative Humidity Dew Point   
(mb) (inHg) (mb) (inHg) (C) (F) (%) (C) (F)
00:05 999 29.5 828 24.45 -7.6 18.2 89 -9.1 15.6
00:10 999 29.5 828 24.45 -7.8 18 89 -9.2 15.4
00:15 999 29.5 828 24.45 -7.8 18 90 -9.1 15.6
00:20 999 29.5 828 24.45 -7.7 18.1 90 -9.1 15.6
00:25 999 29.5 828 24.45 -7.9 17.8 89 -9.3 15.2
00:30 999 29.5 828 24.45 -7.9 17.7 90 -9.4 15.1
00:35 999 29.5 828 24.45 -8 17.6 90 -9.4 15.2
00:40 999 29.5 828 24.45 -8 17.6 90 -9.4 15.1
00:45 999 29.5 828 24.45 -8 17.6 90 -9.3 15.2
00:50 999 29.5 828 24.45 -8.1 17.5 90 -9.4 15.1
00:55 999 29.5 828 24.45 -8.1 17.4 90 -9.4 15
01:00 999 29.5 828 24.45 -8.1 17.3 90 -9.5 15
01:05 999 29.5 829 24.48 -8.1 17.4 91 -9.4 15.1
01:10 999 29.5 829 24.48 -8.1 17.4 90 -9.4 15.1
01:15 999 29.5 829 24.48 -8.1 17.4 91 -9.3 15.2
01:20 1000 29.53 829 24.48 -8.1 17.5 90 -9.4 15.1
01:25 1000 29.53 829 24.48 -8 17.5 91 -9.3 15.3
01:30 1000 29.53 829 24.48 -8 17.7 91 -9.3 15.3
01:35 1000 29.53 829 24.48 -7.9 17.7 91 -9.2 15.4
01:40 1000 29.53 829 24.48 -8 17.6 91 -9.3 15.3
01:45 1000 29.53 829 24.48 -8 17.6 90 -9.4 15.2
01:50 1000 29.53 829 24.48 -8.1 17.4 90 -9.5 14.9
01:55 1000 29.53 829 24.48 -8.1 17.4 90 -9.5 14.9
02:00 1000 29.53 829 24.48 -8.2 17.3 90 -9.6 14.8
02:05 1000 29.53 829 24.48 -8.2 17.2 89 -9.7 14.6
02:10 1000 29.53 829 24.48 -8.3 17.1 90 -9.7 14.6
02:15 1000 29.53 829 24.48 -8.3 17.1 90 -9.6 14.6
02:20 1000 29.53 829 24.48 -8.2 17.2 90 -9.7 14.6
02:25 1000 29.53 829 24.48 -8.3 17.1 90 -9.7 14.6
02:30 1000 29.53 829 24.48 -8.2 17.2 90 -9.6 14.7
02:35 1000 29.53 830 24.51 -8.2 17.2 89 -9.7 14.5
02:40 1000 29.53 830 24.51 -8.3 17.1 89 -9.9 14.3
02:45 1000 29.53 830 24.51 -8.4 16.9 89 -9.9 14.2
02:50 1001 29.56 830 24.51 -8.4 16.9 89 -9.9 14.2
02:55 1001 29.56 830 24.51 -8.4 16.9 89 -9.8 14.3
03:00 1001 29.56 830 24.51 -8.4 16.8 89 -10 14.1
03:05 1001 29.56 830 24.51 -8.5 16.7 89 -10 14
03:10 1001 29.56 830 24.51 -8.5 16.7 89 -10.1 13.9
03:15 1001 29.56 830 24.51 -8.5 16.7 89 -10.1 13.9
03:20 1001 29.56 830 24.51 -8.6 16.6 88 -10.1 13.8
03:25 1001 29.56 830 24.51 -8.6 16.5 89 -10.1 13.8
03:30 1001 29.56 830 24.51 -8.7 16.4 89 -10.2 13.7
03:35 1001 29.56 830 24.51 -8.7 16.4 89 -10.2 13.6
03:40 1001 29.56 830 24.51 -8.7 16.3 88 -10.3 13.4
03:45 1001 29.56 830 24.51 -8.8 16.1 89 -10.3 13.4
03:50 1001 29.56 830 24.51 -8.9 16 89 -10.4 13.3
03:55 1001 29.56 830 24.51 -9 15.9 89 -10.4 13.3
04:00 1001 29.56 830 24.51 -9 15.9 89 -10.5 13.1
04:05 1001 29.56 831 24.54 -8.9 15.9 89 -10.4 13.2
04:10 1001 29.56 831 24.54 -9 15.8 89 -10.5 13.2
04:15 1001 29.56 831 24.54 -9.1 15.7 90 -10.5 13.1
04:20 1002 29.59 831 24.54 -9.1 15.6 89 -10.6 13
04:25 1002 29.59 831 24.54 -9.1 15.7 89 -10.5 13.1
04:30 1002 29.59 831 24.54 -9.1 15.7 90 -10.5 13.2
04:35 1002 29.59 831 24.54 -9.1 15.7 90 -10.5 13.2
04:40 1002 29.59 831 24.54 -9.1 15.6 90 -10.5 13.1
04:45 1002 29.59 831 24.54 -9.2 15.5 90 -10.5 13.1
04:50 1002 29.59 831 24.54 -9.2 15.5 90 -10.5 13.1
04:55 1002 29.59 831 24.54 -9.2 15.5 90 -10.5 13.2
05:00 1002 29.59 831 24.54 -9.2 15.4 91 -10.4 13.2
05:05 1002 29.59 831 24.54 -9.2 15.4 91 -10.4 13.2
05:10 1002 29.59 831 24.54 -9.2 15.4 91 -10.4 13.3
05:15 1002 29.59 832 24.57 -9.1 15.5 91 -10.3 13.4
05:20 1002 29.59 832 24.57 -9.2 15.5 91 -10.5 13.2
05:25 1003 29.62 832 24.57 -9.2 15.4 90 -10.5 13
05:30 1003 29.62 832 24.57 -9.2 15.4 90 -10.6 12.9
05:35 1003 29.62 832 24.57 -9.3 15.4 89 -10.8 12.6
05:40 1003 29.62 832 24.57 -9.3 15.4 89 -10.8 12.6
05:45 1003 29.62 832 24.57 -9.2 15.5 88 -10.9 12.5
05:50 1003 29.62 832 24.57 -9.3 15.4 88 -10.9 12.4
05:55 1003 29.62 832 24.57 -9.3 15.2 89 -10.8 12.5
06:00 1003 29.62 832 24.57 -9.3 15.2 89 -10.9 12.4
06:05 1003 29.62 832 24.57 -9.3 15.2 89 -10.9 12.4
06:10 1003 29.62 832 24.57 -9.3 15.3 88 -10.9 12.4
06:15 1003 29.62 832 24.57 -9.3 15.3 88 -10.9 12.4
06:20 1003 29.62 832 24.57 -9.3 15.3 88 -10.9 12.4
06:25 1003 29.62 832 24.57 -9.3 15.3 88 -10.9 12.4
06:30 1003 29.62 832 24.57 -9.3 15.3 89 -10.8 12.6
06:35 1003 29.62 832 24.57 -9.3 15.4 89 -10.7 12.7
06:40 1003 29.62 832 24.57 -9.2 15.5 89 -10.7 12.7
06:45 1003 29.62 832 24.57 -9.2 15.4 89 -10.7 12.7
06:50 1003 29.62 833 24.6 -9.2 15.4 89 -10.7 12.7
06:55 1004 29.65 833 24.6 -9.2 15.5 89 -10.7 12.8
07:00 1004 29.65 833 24.6 -9.2 15.5 89 -10.7 12.8
07:05 1004 29.65 833 24.6 -9.1 15.5 89 -10.7 12.8
07:10 1004 29.65 833 24.6 -9.1 15.6 89 -10.6 13
07:15 1004 29.65 833 24.6 -9.1 15.6 89 -10.6 13
07:20 1004 29.65 833 24.6 -9.1 15.6 89 -10.6 12.9
07:25 1004 29.65 833 24.6 -9.2 15.5 89 -10.7 12.8
07:30 1004 29.65 833 24.6 -9.1 15.5 89 -10.6 13
07:35 1004 29.65 833 24.6 -9.2 15.5 89 -10.6 12.9
07:40 1004 29.65 833 24.6 -9.2 15.4 90 -10.6 13
07:45 1004 29.65 833 24.6 -9.1 15.6 90 -10.5 13
07:50 1004 29.65 833 24.6 -9.1 15.6 90 -10.5 13.1
07:55 1004 29.65 834 24.63 -9.1 15.6 89 -10.5 13
08:00 1004 29.65 834 24.63 -9.1 15.5 90 -10.6 13
08:05 1005 29.68 834 24.63 -9.2 15.4 90 -10.6 13
08:10 1005 29.68 834 24.63 -9.2 15.4 90 -10.6 13
08:15 1005 29.68 834 24.63 -9.2 15.5 90 -10.5 13
08:20 1005 29.68 834 24.63 -9.2 15.4 91 -10.5 13.1
08:25 1005 29.68 834 24.63 -9.1 15.6 89 -10.6 13
08:30 1005 29.68 834 24.63 -9.1 15.5 90 -10.4 13.2
08:35 1005 29.68 834 24.63 -9 15.7 90 -10.3 13.4
08:40 1005 29.68 834 24.63 -8.9 15.9 89 -10.4 13.2
08:45 1005 29.68 834 24.63 -8.9 15.9 89 -10.4 13.3
08:50 1005 29.68 834 24.63 -8.9 16.1 89 -10.3 13.4
08:55 1005 29.68 834 24.63 -8.8 16.2 88 -10.4 13.3
09:00 1005 29.68 834 24.63 -8.8 16.1 89 -10.3 13.4
09:05 1005 29.68 834 24.63 -8.9 16 89 -10.4 13.3
09:10 1005 29.68 835 24.66 -9 15.9 89 -10.4 13.2
09:15 1005 29.68 835 24.66 -8.9 15.9 89 -10.4 13.2
09:20 1005 29.68 835 24.66 -8.8 16.1 89 -10.4 13.3
09:25 1006 29.71 835 24.66 -8.8 16.2 89 -10.3 13.5
09:30 1006 29.71 835 24.66 -8.7 16.3 88 -10.3 13.4
09:35 1006 29.71 835 24.66 -8.6 16.5 88 -10.2 13.6
09:40 1006 29.71 835 24.66 -8.4 16.8 87 -10.2 13.6
09:45 1006 29.71 835 24.66 -8.5 16.7 87 -10.3 13.5
09:50 1006 29.71 835 24.66 -8.5 16.7 87 -10.3 13.4
09:55 1006 29.71 835 24.66 -8.4 16.8 87 -10.3 13.5
10:00 1006 29.71 835 24.66 -8.3 17.1 86 -10.3 13.5
10:05 1006 29.71 835 24.66 -8.2 17.2 85 -10.3 13.5
10:10 1006 29.71 835 24.66 -8.3 17 86 -10.3 13.5
10:15 1006 29.71 835 24.66 -8.4 16.9 86 -10.3 13.4
10:20 1006 29.71 835 24.66 -8.3 17 87 -10.1 13.9
10:25 1006 29.71 835 24.66 -8.1 17.4 87 -9.9 14.1
10:30 1006 29.71 835 24.66 -8.1 17.4 87 -10 14
10:35 1006 29.71 835 24.66 -8.1 17.4 86 -10 14
10:40 1006 29.71 835 24.66 -8.1 17.3 86 -10.1 13.9
10:45 1006 29.71 835 24.66 -8.3 17.1 87 -10 14
10:50 1006 29.71 836 24.69 -8.1 17.4 85 -10.2 13.6
10:55 1006 29.71 836 24.69 -8.1 17.3 85 -10.2 13.7
11:00 1006 29.71 836 24.69 -7.7 18.1 83 -10.1 13.8
11:05 1006 29.71 836 24.69 -7.7 18.1 83 -10.1 13.8
11:10 1006 29.71 836 24.69 -8 17.7 83 -10.3 13.4
11:15 1006 29.71 836 24.69 -8 17.7 84 -10.3 13.5
11:20 1006 29.71 836 24.69 -7.7 18.1 83 -10.2 13.7
11:25 1007 29.74 836 24.69 -7.7 18.2 81 -10.3 13.5
11:30 1007 29.74 836 24.69 -7.7 18.1 82 -10.3 13.4
11:35 1007 29.74 836 24.69 -7.9 17.8 83 -10.3 13.5
11:40 1007 29.74 836 24.69 -7.7 18.2 83 -10.1 13.9
11:45 1007 29.74 836 24.69 -7.4 18.6 82 -9.9 14.1
11:50 1007 29.74 836 24.69 -7.3 18.9 81 -10 14
11:55 1007 29.74 836 24.69 -7.4 18.6 82 -10 13.9
12:00 1007 29.74 836 24.69 -7.3 18.9 83 -9.7 14.6
12:05 1007 29.74 836 24.69 -7 19.4 82 -9.5 14.9
12:10 1007 29.74 836 24.69 -7.1 19.2 81 -9.8 14.4
12:15 1007 29.74 836 24.69 -7.2 19.1 81 -9.9 14.1
12:20 1007 29.74 836 24.69 -7.2 19.1 82 -9.8 14.3
12:25 1007 29.74 836 24.69 -7.2 19 82 -9.7 14.5
12:30 1007 29.74 836 24.69 -7 19.3 82 -9.5 14.8
12:35 1007 29.74 836 24.69 -6.7 19.9 81 -9.5 14.9
12:40 1007 29.74 836 24.69 -6.6 20.1 80 -9.5 14.9
12:45 1007 29.74 836 24.69 -6.8 19.8 80 -9.7 14.5
12:50 1007 29.74 836 24.69 -7 19.3 82 -9.7 14.6
12:55 1007 29.74 836 24.69 -7.4 18.7 84 -9.7 14.5
13:00 1007 29.74 836 24.69 -7.4 18.6 83 -9.9 14.3
13:05 1007 29.74 836 24.69 -7.4 18.7 83 -9.9 14.2
13:10 1007 29.74 836 24.69 -7.4 18.7 83 -9.8 14.3
13:15 1007 29.74 836 24.69 -7.4 18.8 82 -10 14
13:20 1007 29.74 836 24.69 -7.6 18.4 83 -9.9 14.1
13:25 1007 29.74 836 24.69 -7.4 18.7 84 -9.7 14.6
13:30 1007 29.74 836 24.69 -7.3 18.8 84 -9.5 14.8
13:35 1007 29.74 836 24.69 -7.4 18.8 82 -10 14.1
13:40 1007 29.74 836 24.69 -7.6 18.4 84 -9.7 14.5
13:45 1007 29.74 836 24.69 -7.4 18.6 83 -9.8 14.4
13:50 1007 29.74 836 24.69 -7.3 18.9 82 -9.8 14.4
13:55 1007 29.74 836 24.69 -7.1 19.3 82 -9.7 14.6
14:00 1007 29.74 836 24.69 -6.9 19.5 81 -9.7 14.5
14:05 1007 29.74 836 24.69 -7.2 19 83 -9.6 14.8
14:10 1007 29.74 836 24.69 -7 19.4 82 -9.5 14.9
14:15 1007 29.74 836 24.69 -6.9 19.5 81 -9.6 14.7
14:20 1007 29.74 836 24.69 -7.2 19.1 84 -9.5 15
14:25 1007 29.74 837 24.72 -7.2 19 83 -9.6 14.7
14:30 1007 29.74 837 24.72 -7.1 19.1 85 -9.2 15.4
14:35 1007 29.74 837 24.72 -7 19.4 85 -9.1 15.5
14:40 1008 29.77 837 24.72 -7 19.5 84 -9.2 15.5
14:45 1008 29.77 837 24.72 -7.1 19.3 84 -9.3 15.3
14:50 1008 29.77 837 24.72 -7.1 19.1 86 -9.2 15.5
14:55 1008 29.77 837 24.72 -7.2 19 85 -9.3 15.2
15:00 1008 29.77 837 24.72 -7.2 19.1 86 -9.2 15.5
15:05 1008 29.77 837 24.72 -7 19.4 84 -9.2 15.5
15:10 1008 29.77 837 24.72 -7.1 19.3 85 -9.2 15.4
15:15 1008 29.77 837 24.72 -7 19.4 85 -9.2 15.5
15:20 1008 29.77 837 24.72 -7 19.4 86 -9 15.9
15:25 1008 29.77 837 24.72 -6.9 19.6 86 -8.9 16
15:30 1008 29.77 837 24.72 -6.9 19.6 85 -9 15.9
15:35 1008 29.77 837 24.72 -7 19.4 86 -9 15.8
15:40 1008 29.77 837 24.72 -7 19.4 86 -8.9 15.9
15:45 1008 29.77 838 24.75 -7 19.4 87 -8.8 16.2
15:50 1008 29.77 838 24.75 -7 19.3 87 -8.8 16.1
15:55 1008 29.77 838 24.75 -7.1 19.3 87 -8.9 16
16:00 1008 29.77 838 24.75 -7.2 19.1 87 -8.9 15.9
16:05 1009 29.8 838 24.75 -7.2 19 88 -9 15.9
16:10 1009 29.8 838 24.75 -7.3 18.9 88 -8.9 15.9
16:15 1009 29.8 838 24.75 -7.3 18.9 88 -8.9 16
16:20 1009 29.8 838 24.75 -7.3 18.8 88 -8.9 15.9
16:25 1009 29.8 838 24.75 -7.4 18.7 89 -8.9 16
16:30 1009 29.8 838 24.75 -7.4 18.8 89 -8.9 16
16:35 1009 29.8 838 24.75 -7.4 18.8 89 -8.9 16
16:40 1009 29.8 838 24.75 -7.5 18.6 90 -8.9 16
16:45 1009 29.8 838 24.75 -7.5 18.5 90 -8.9 16
16:50 1009 29.8 838 24.75 -7.5 18.6 90 -8.9 16
16:55 1009 29.8 838 24.75 -7.5 18.5 90 -8.8 16.1
17:00 1009 29.8 838 24.75 -7.5 18.5 90 -8.8 16.2
17:05 1009 29.8 838 24.75 -7.5 18.6 90 -8.9 16
17:10 1009 29.8 838 24.75 -7.6 18.4 90 -8.9 16
17:15 1009 29.8 838 24.75 -7.6 18.3 90 -9 15.8
17:20 1009 29.8 839 24.78 -7.8 17.9 91 -9.1 15.6
17:25 1009 29.8 839 24.78 -7.9 17.8 91 -9.2 15.5
17:30 1009 29.8 839 24.78 -7.9 17.7 91 -9.1 15.5
17:35 1010 29.83 839 24.78 -8 17.7 91 -9.2 15.5
17:40 1010 29.83 839 24.78 -8 17.7 91 -9.2 15.5
17:45 1010 29.83 839 24.78 -8 17.7 91 -9.1 15.6
17:50 1010 29.83 839 24.78 -8 17.7 91 -9.1 15.6
17:55 1010 29.83 839 24.78 -8 17.7 91 -9.2 15.4
18:00 1010 29.83 839 24.78 -8 17.6 91 -9.2 15.5
18:05 1010 29.83 839 24.78 -8 17.6 91 -9.2 15.4
18:10 1010 29.83 839 24.78 -8.1 17.5 91 -9.3 15.3
18:15 1010 29.83 839 24.78 -8 17.5 91 -9.2 15.4
18:20 1010 29.83 839 24.78 -8 17.5 92 -9.1 15.5
18:25 1010 29.83 839 24.78 -8 17.7 92 -9.1 15.6
18:30 1010 29.83 839 24.78 -8 17.6 92 -9.1 15.5
18:35 1010 29.83 839 24.78 -8 17.6 91 -9.2 15.4
18:40 1010 29.83 839 24.78 -8 17.6 92 -9.2 15.5
18:45 1010 29.83 839 24.78 -8 17.7 92 -9.1 15.7
18:50 1010 29.83 840 24.81 -8 17.7 92 -9.1 15.6
18:55 1010 29.83 840 24.81 -7.9 17.7 92 -9.1 15.7
19:00 1010 29.83 840 24.81 -7.9 17.7 91 -9.1 15.6
19:05 1010 29.83 840 24.81 -8 17.7 92 -9.1 15.6
19:10 1010 29.83 840 24.81 -8 17.7 92 -9.1 15.7
19:15 1011 29.85 840 24.81 -7.9 17.8 91 -9.1 15.7
19:20 1011 29.85 840 24.81 -7.9 17.8 91 -9.1 15.6
19:25 1011 29.85 840 24.81 -8 17.7 91 -9.1 15.6
19:30 1011 29.85 840 24.81 -8 17.7 92 -9.1 15.7
19:35 1011 29.85 840 24.81 -8 17.7 92 -9 15.7
19:40 1011 29.85 840 24.81 -7.9 17.8 92 -9 15.8
19:45 1011 29.85 840 24.81 -7.9 17.8 92 -9 15.9
19:50 1011 29.85 840 24.81 -7.9 17.8 92 -8.9 15.9
19:55 1011 29.85 840 24.81 -7.8 17.9 92 -8.9 16
20:00 1011 29.85 840 24.81 -7.8 17.9 92 -9 15.9
20:05 1011 29.85 840 24.81 -7.9 17.9 92 -9 15.8
20:10 1011 29.85 840 24.81 -7.8 17.9 92 -9 15.8
20:15 1011 29.85 840 24.81 -7.9 17.8 92 -9 15.7
20:20 1011 29.85 840 24.81 -7.9 17.8 92 -9 15.8
20:25 1011 29.85 841 24.83 -7.9 17.9 92 -9 15.8
20:30 1011 29.85 841 24.83 -7.9 17.8 92 -9 15.9
20:35 1011 29.85 841 24.83 -7.9 17.8 92 -9 15.8
20:40 1012 29.88 841 24.83 -7.9 17.8 92 -9 15.7
20:45 1012 29.88 841 24.83 -8 17.7 92 -9 15.7
20:50 1012 29.88 841 24.83 -8 17.7 92 -9.1 15.7
20:55 1012 29.88 841 24.83 -8 17.6 92 -9.1 15.6
21:00 1012 29.88 841 24.83 -8 17.6 92 -9 15.7
21:05 1012 29.88 841 24.83 -7.9 17.8 92 -9 15.8
21:10 1012 29.88 841 24.83 -7.9 17.7 92 -9 15.7
21:15 1012 29.88 841 24.83 -7.9 17.7 92 -9.1 15.7
21:20 1012 29.88 841 24.83 -8 17.7 91 -9.1 15.6
21:25 1012 29.88 841 24.83 -8 17.6 91 -9.2 15.5
21:30 1012 29.88 842 24.86 -8 17.5 92 -9.1 15.6
21:35 1012 29.88 842 24.86 -8.1 17.5 92 -9.1 15.6
21:40 1012 29.88 842 24.86 -8.1 17.5 92 -9.1 15.6
21:45 1013 29.91 842 24.86 -8.1 17.5 92 -9.1 15.5
21:50 1013 29.91 842 24.86 -8.1 17.4 92 -9.2 15.5
21:55 1013 29.91 842 24.86 -8.1 17.4 92 -9.2 15.5
22:00 1013 29.91 842 24.86 -8.1 17.4 92 -9.2 15.4
22:05 1013 29.91 842 24.86 -8.2 17.3 92 -9.3 15.2
22:10 1013 29.91 842 24.86 -8.3 17.1 92 -9.3 15.2
22:15 1013 29.91 842 24.86 -8.2 17.2 92 -9.3 15.3
22:20 1013 29.91 842 24.86 -8.2 17.2 92 -9.3 15.3
22:25 1013 29.91 842 24.86 -8.2 17.2 92 -9.2 15.4
22:30 1013 29.91 842 24.86 -8.3 17.1 92 -9.3 15.2
22:35 1013 29.91 842 24.86 -8.4 17 92 -9.4 15.1
22:40 1013 29.91 842 24.86 -8.3 17 92 -9.4 15.1
22:45 1013 29.91 842 24.86 -8.3 17.1 92 -9.4 15.1
22:50 1013 29.91 842 24.86 -8.3 17.1 91 -9.5 14.9
22:55 1013 29.91 842 24.86 -8.3 17 92 -9.5 14.9
23:00 1013 29.91 842 24.86 -8.4 16.9 92 -9.5 14.9
23:05 1013 29.91 843 24.89 -8.5 16.8 92 -9.6 14.7
23:10 1013 29.91 843 24.89 -8.5 16.8 91 -9.6 14.6
23:15 1013 29.91 843 24.89 -8.4 16.9 91 -9.6 14.7
23:20 1014 29.94 843 24.89 -8.5 16.8 91 -9.6 14.7
23:25 1014 29.94 843 24.89 -8.5 16.8 91 -9.7 14.6
23:30 1014 29.94 843 24.89 -8.5 16.7 91 -9.7 14.6
23:35 1014 29.94 843 24.89 -8.4 16.8 91 -9.7 14.6
23:40 1014 29.94 843 24.89 -8.4 16.9 91 -9.6 14.8
23:45 1014 29.94 843 24.89 -8.4 16.9 91 -9.6 14.8
23:50 1014 29.94 843 24.89 -8.4 16.9 91 -9.6 14.7
23:55 1014 29.94 843 24.89 -8.4 17 91 -9.6 14.7
24:00 1014 29.94 843 24.89 -8.3 17 90 -9.7 14.6